createdAt,value
2023-11-09T00:00:01.827Z,99949.05
2023-11-09T00:02:36.063Z,99945.62
2023-11-09T00:05:07.788Z,99943.00
2023-11-09T00:07:38.593Z,99941.27
2023-11-09T00:10:11.775Z,99943.17
2023-11-09T00:12:42.807Z,99942.20
2023-11-09T00:15:16.584Z,99936.55
2023-11-09T00:17:47.172Z,99931.41
2023-11-09T00:20:26.382Z,99927.92
2023-11-09T00:22:56.771Z,99924.43
2023-11-09T00:25:28.233Z,99919.16
2023-11-09T00:27:58.590Z,99916.67
2023-11-09T00:30:29.723Z,99918.55
2023-11-09T00:33:00.304Z,99914.52
2023-11-09T00:35:34.015Z,99913.59
2023-11-09T00:38:06.024Z,99902.33
2023-11-09T00:40:36.998Z,99899.05
2023-11-09T00:43:17.740Z,99896.77
2023-11-09T00:45:48.454Z,99897.08
2023-11-09T00:48:19.198Z,99890.77
2023-11-09T00:50:49.711Z,99889.34
2023-11-09T00:53:27.333Z,99887.79
2023-11-09T00:55:57.853Z,99880.73
2023-11-09T00:58:28.472Z,99870.45
2023-11-09T01:00:59.738Z,99872.73
2023-11-09T01:03:30.127Z,99862.70
2023-11-09T01:06:01.651Z,99860.70
2023-11-09T01:08:32.128Z,99857.59
2023-11-09T01:11:07.138Z,99851.96
2023-11-09T01:13:38.627Z,99843.83
2023-11-09T01:16:10.092Z,99834.02
2023-11-09T01:18:41.085Z,99832.39
2023-11-09T01:21:11.588Z,99826.73
2023-11-09T01:23:42.184Z,99819.39
2023-11-09T01:26:13.203Z,99812.94
2023-11-09T01:28:43.839Z,99813.15
2023-11-09T01:31:14.559Z,99813.09
2023-11-09T01:33:45.063Z,99811.04
2023-11-09T01:36:18.277Z,99803.97
2023-11-09T01:38:48.760Z,99799.43
2023-11-09T01:41:20.020Z,99796.50
2023-11-09T01:43:59.337Z,99791.39
2023-11-09T01:46:31.594Z,99784.85
2023-11-09T01:49:03.048Z,99785.08
2023-11-09T01:51:34.725Z,99781.64
2023-11-09T01:54:05.786Z,99785.31
2023-11-09T01:56:37.161Z,99782.61
2023-11-09T01:59:06.361Z,99781.05
2023-11-09T02:01:38.503Z,99776.56
2023-11-09T02:04:10.359Z,99772.86
2023-11-09T02:06:46.128Z,99766.30
2023-11-09T02:09:16.706Z,99761.52
2023-11-09T02:11:50.749Z,99758.37
2023-11-09T02:14:24.692Z,99758.00
2023-11-09T02:16:55.981Z,99756.58
2023-11-09T02:19:26.572Z,99749.17
2023-11-09T02:21:58.101Z,99750.55
2023-11-09T02:24:28.797Z,99750.41
2023-11-09T02:27:00.388Z,99748.91
2023-11-09T02:29:30.839Z,99750.73
2023-11-09T02:32:02.242Z,99750.86
2023-11-09T02:34:34.115Z,99749.78
2023-11-09T02:37:09.666Z,99749.89
2023-11-09T02:39:42.366Z,99747.29
2023-11-09T02:42:13.388Z,99739.84
2023-11-09T02:44:43.837Z,99737.33
2023-11-09T02:47:14.245Z,99736.02
2023-11-09T02:49:47.872Z,99728.92
2023-11-09T02:52:19.509Z,99732.02
2023-11-09T02:54:52.470Z,99725.39
2023-11-09T02:57:22.907Z,99721.16
2023-11-09T02:59:53.634Z,99720.55
2023-11-09T03:02:24.167Z,99718.14
2023-11-09T03:04:54.658Z,99715.09
2023-11-09T03:07:26.625Z,99708.37
2023-11-09T03:09:57.208Z,99704.67
2023-11-09T03:12:28.428Z,99706.55
2023-11-09T03:14:57.419Z,99708.41
2023-11-09T03:17:29.236Z,99698.35
2023-11-09T03:20:00.679Z,99700.13
2023-11-09T03:22:31.371Z,99696.06
2023-11-09T03:25:05.679Z,99695.75
2023-11-09T03:27:36.124Z,99694.48
2023-11-09T03:30:07.565Z,99700.58
2023-11-09T03:32:38.105Z,99695.55
2023-11-09T03:35:09.437Z,99693.50
2023-11-09T03:37:40.274Z,99690.87
2023-11-09T03:40:13.997Z,99686.52
2023-11-09T03:42:44.808Z,99688.63
2023-11-09T03:45:15.428Z,99690.59
2023-11-09T03:47:45.963Z,99683.91
2023-11-09T03:50:16.857Z,99684.23
2023-11-09T03:52:48.183Z,99682.04
2023-11-09T03:55:17.260Z,99671.30
2023-11-09T03:57:47.783Z,99665.17
2023-11-09T04:00:19.861Z,99660.29
2023-11-09T04:02:51.088Z,99656.23
2023-11-09T04:05:23.802Z,99658.71
2023-11-09T04:08:03.754Z,99656.69
2023-11-09T04:10:37.352Z,99659.00
2023-11-09T04:13:07.770Z,99661.17
2023-11-09T04:15:41.608Z,99659.92
2023-11-09T04:18:12.713Z,99663.34
2023-11-09T04:20:43.352Z,99661.07
2023-11-09T04:23:34.068Z,99658.45
2023-11-09T04:26:04.756Z,99657.79
2023-11-09T04:28:55.412Z,99656.64
2023-11-09T04:31:30.111Z,99662.42
2023-11-09T04:34:09.442Z,99655.45
2023-11-09T04:36:54.090Z,99641.52
2023-11-09T04:39:30.985Z,99643.92
2023-11-09T04:42:05.650Z,99635.79
2023-11-09T04:44:38.039Z,99632.96
2023-11-09T04:47:22.948Z,99632.44
2023-11-09T04:49:59.814Z,99627.77
2023-11-09T04:52:58.627Z,99626.20
2023-11-09T04:55:33.977Z,99625.88
2023-11-09T04:58:32.487Z,99619.95
2023-11-09T05:01:46.311Z,99614.66
2023-11-09T05:04:34.620Z,99614.13
2023-11-09T05:07:13.617Z,99603.55
2023-11-09T05:09:46.895Z,99600.40
2023-11-09T05:12:18.229Z,99599.65
2023-11-09T05:14:49.310Z,99601.80
2023-11-09T05:17:27.353Z,99595.89
2023-11-09T05:20:12.298Z,99594.10
2023-11-09T05:22:42.787Z,99589.94
2023-11-09T05:25:17.563Z,99589.38
2023-11-09T05:28:08.405Z,99581.45
2023-11-09T05:30:39.557Z,99576.61
2023-11-09T05:33:10.138Z,99569.27
2023-11-09T05:35:43.986Z,99567.27
2023-11-09T05:38:23.346Z,99573.81
2023-11-09T05:41:12.839Z,99567.98
2023-11-09T05:43:53.520Z,99558.84
2023-11-09T05:46:44.223Z,99559.90
2023-11-09T05:49:25.970Z,99552.95
2023-11-09T05:51:57.270Z,99551.48
2023-11-09T05:54:26.295Z,99550.39
2023-11-09T05:56:56.982Z,99549.23
2023-11-09T05:59:27.666Z,99558.86
2023-11-09T06:02:00.969Z,99556.69
2023-11-09T06:04:36.545Z,99552.39
2023-11-09T06:07:18.411Z,99556.19
2023-11-09T06:09:53.138Z,99563.17
2023-11-09T06:12:35.040Z,99556.44
2023-11-09T06:15:09.913Z,99548.75
2023-11-09T06:18:00.797Z,99550.97
2023-11-09T06:20:31.517Z,99557.89
2023-11-09T06:23:02.376Z,99557.46
2023-11-09T06:25:36.044Z,99561.05
2023-11-09T06:28:27.392Z,99567.05
2023-11-09T06:31:05.445Z,99571.67
2023-11-09T06:33:39.371Z,99582.16
2023-11-09T06:36:10.885Z,99588.67
2023-11-09T06:38:50.730Z,99591.41
2023-11-09T06:41:31.584Z,99593.79
2023-11-09T06:44:02.613Z,99600.85
2023-11-09T06:46:39.037Z,99606.35
2023-11-09T06:49:29.965Z,99611.08
2023-11-09T06:52:00.518Z,99611.45
2023-11-09T06:54:31.229Z,99606.75
2023-11-09T06:57:22.471Z,99614.58
2023-11-09T06:59:55.178Z,99614.98
2023-11-09T07:02:35.396Z,99619.98
2023-11-09T07:05:16.195Z,99612.84
2023-11-09T07:08:07.100Z,99611.62
2023-11-09T07:10:59.596Z,99606.17
2023-11-09T07:13:50.248Z,99601.26
2023-11-09T07:16:23.939Z,99603.45
2023-11-09T07:19:05.749Z,99609.72
2023-11-09T07:21:46.479Z,99610.01
2023-11-09T07:24:18.775Z,99612.52
2023-11-09T07:26:49.339Z,99616.73
2023-11-09T07:29:40.631Z,99618.27
2023-11-09T07:32:11.982Z,99622.60
2023-11-09T07:35:02.847Z,99622.23
2023-11-09T07:37:36.196Z,99621.60
2023-11-09T07:40:13.517Z,99618.57
2023-11-09T07:42:47.234Z,99619.03
2023-11-09T07:45:21.871Z,99621.33
2023-11-09T07:47:52.596Z,99619.23
2023-11-09T07:50:25.122Z,99613.56
2023-11-09T07:53:16.270Z,99613.88
2023-11-09T07:55:56.904Z,99612.84
2023-11-09T07:58:54.997Z,99612.73
2023-11-09T08:01:26.153Z,99609.69
2023-11-09T08:03:56.877Z,99610.08
2023-11-09T08:06:27.539Z,99608.58
2023-11-09T08:09:00.984Z,99607.52
2023-11-09T08:11:43.970Z,99609.75
2023-11-09T08:14:34.783Z,99604.91
2023-11-09T08:17:13.699Z,99610.17
2023-11-09T08:19:50.811Z,99614.48
2023-11-09T08:22:21.576Z,99624.33
2023-11-09T08:24:52.152Z,99633.27
2023-11-09T08:27:26.853Z,99636.77
2023-11-09T08:29:58.570Z,99635.13
2023-11-09T08:32:49.851Z,99632.05
2023-11-09T08:35:25.433Z,99630.90
2023-11-09T08:37:58.877Z,99631.41
2023-11-09T08:40:43.575Z,99627.41
2023-11-09T08:43:17.131Z,99628.30
2023-11-09T08:45:58.988Z,99627.20
2023-11-09T08:48:49.697Z,99629.17
2023-11-09T08:51:30.477Z,99621.36
2023-11-09T08:54:12.155Z,99621.30
2023-11-09T08:56:42.715Z,99618.52
2023-11-09T08:59:25.791Z,99615.10
2023-11-09T09:01:57.363Z,99614.23
2023-11-09T09:04:49.993Z,99615.46
2023-11-09T09:07:24.977Z,99612.90
2023-11-09T09:09:59.642Z,99614.20
2023-11-09T09:12:30.775Z,99609.69
2023-11-09T09:15:14.624Z,99601.41
2023-11-09T09:17:46.841Z,99595.52
2023-11-09T09:20:21.290Z,99585.41
2023-11-09T09:22:55.917Z,99584.31
2023-11-09T09:25:27.263Z,99580.02
2023-11-09T09:27:57.972Z,99580.16
2023-11-09T09:30:30.928Z,99578.29
2023-11-09T09:33:04.927Z,99579.77
2023-11-09T09:35:47.853Z,99577.36
2023-11-09T09:38:18.458Z,99580.59
2023-11-09T09:40:52.663Z,99580.48
2023-11-09T09:43:25.704Z,99584.81
2023-11-09T09:46:01.733Z,99587.96
2023-11-09T09:48:41.581Z,99590.59
2023-11-09T09:51:14.819Z,99593.46
2023-11-09T09:53:46.257Z,99595.00
2023-11-09T09:56:22.960Z,99593.25
2023-11-09T09:59:03.255Z,99592.59
2023-11-09T10:01:36.732Z,99588.74
2023-11-09T10:04:10.831Z,99589.77
2023-11-09T10:06:52.885Z,99591.31
2023-11-09T10:09:26.444Z,99589.98
2023-11-09T10:11:57.023Z,99589.81
2023-11-09T10:14:29.705Z,99582.40
2023-11-09T10:17:00.700Z,99584.45
2023-11-09T10:19:48.937Z,99576.71
2023-11-09T10:22:21.237Z,99575.51
2023-11-09T10:24:56.094Z,99569.70
2023-11-09T10:27:31.300Z,99567.45
2023-11-09T10:30:03.358Z,99565.60
2023-11-09T10:32:46.194Z,99569.30
2023-11-09T10:35:19.306Z,99570.05
2023-11-09T10:37:52.681Z,99566.49
2023-11-09T10:40:29.170Z,99570.07
2023-11-09T10:43:15.622Z,99565.73
2023-11-09T10:45:59.037Z,99556.17
2023-11-09T10:48:33.465Z,99562.77
2023-11-09T10:51:10.237Z,99556.14
2023-11-09T10:53:44.665Z,99555.61
2023-11-09T10:56:20.782Z,99547.55
2023-11-09T10:58:52.329Z,99548.76
2023-11-09T11:01:30.090Z,99545.48
2023-11-09T11:04:09.613Z,99539.29
2023-11-09T11:06:52.194Z,99538.70
2023-11-09T11:09:28.241Z,99539.55
2023-11-09T11:12:03.330Z,99534.02
2023-11-09T11:14:37.581Z,99532.52
2023-11-09T11:17:43.016Z,99531.30
2023-11-09T11:20:41.960Z,99530.11
2023-11-09T11:23:31.092Z,99526.32
2023-11-09T11:26:07.255Z,99534.80
2023-11-09T11:28:40.216Z,99531.48
2023-11-09T11:31:11.498Z,99529.66
2023-11-09T11:33:43.019Z,99526.80
2023-11-09T11:36:25.212Z,99528.08
2023-11-09T11:39:15.015Z,99515.48
2023-11-09T11:41:46.983Z,99515.98
2023-11-09T11:44:24.369Z,99509.69
2023-11-09T11:47:00.263Z,99509.70
2023-11-09T11:49:31.149Z,99504.30
2023-11-09T11:52:06.220Z,99497.73
2023-11-09T11:54:37.320Z,99504.52
2023-11-09T11:57:13.094Z,99501.52
2023-11-09T11:59:45.354Z,99499.95
2023-11-09T12:02:26.497Z,99500.18
2023-11-09T12:04:59.621Z,99500.33
2023-11-09T12:07:35.749Z,99499.98
2023-11-09T12:10:08.313Z,99493.52
2023-11-09T12:12:38.746Z,99493.94
2023-11-09T12:15:11.506Z,99488.89
2023-11-09T12:17:45.228Z,99488.88
2023-11-09T12:20:18.914Z,99486.84
2023-11-09T12:22:51.312Z,99485.23
2023-11-09T12:25:23.727Z,99484.91
2023-11-09T12:27:54.258Z,99484.88
2023-11-09T12:30:25.063Z,99479.41
2023-11-09T12:32:59.441Z,99479.44
2023-11-09T12:35:30.075Z,99477.16
2023-11-09T12:38:02.508Z,99472.91
2023-11-09T12:40:33.521Z,99471.98
2023-11-09T12:43:04.882Z,99471.42
2023-11-09T12:45:43.398Z,99468.08
2023-11-09T12:48:15.489Z,99460.98
2023-11-09T12:50:48.190Z,99463.21
2023-11-09T12:53:20.135Z,99452.25
2023-11-09T12:55:51.976Z,99452.09
2023-11-09T12:58:22.540Z,99446.35
2023-11-09T13:00:53.848Z,99440.55
2023-11-09T13:03:24.539Z,99436.27
2023-11-09T13:05:55.129Z,99427.41
2023-11-09T13:08:25.606Z,99426.23
2023-11-09T13:10:58.877Z,99422.75
2023-11-09T13:13:36.144Z,99422.58
2023-11-09T13:16:15.656Z,99419.67
2023-11-09T13:18:51.980Z,99416.28
2023-11-09T13:21:23.342Z,99415.43
2023-11-09T13:24:02.758Z,99409.16
2023-11-09T13:26:36.126Z,99408.08
2023-11-09T13:29:15.899Z,99405.23
2023-11-09T13:31:58.462Z,99406.30
2023-11-09T13:34:44.400Z,99406.13
2023-11-09T13:37:28.021Z,99403.66
2023-11-09T13:40:30.005Z,99402.64
2023-11-09T13:43:10.117Z,99404.06
2023-11-09T13:45:47.831Z,99405.81
2023-11-09T13:48:25.070Z,99400.42
2023-11-09T13:50:59.704Z,99401.89
2023-11-09T13:53:47.844Z,99395.68
2023-11-09T13:56:35.981Z,99398.65
2023-11-09T13:59:13.966Z,99398.45
2023-11-09T14:01:51.367Z,99393.27
2023-11-09T14:04:24.074Z,99397.43
2023-11-09T14:06:59.169Z,99400.53
2023-11-09T14:09:36.196Z,99403.06
2023-11-09T14:12:10.901Z,99408.35
2023-11-09T14:14:45.644Z,99404.48
2023-11-09T14:17:18.624Z,99403.17
2023-11-09T14:19:55.346Z,99406.16
2023-11-09T14:22:30.026Z,99402.30
2023-11-09T14:25:00.877Z,99402.07
2023-11-09T14:27:31.514Z,99403.08
2023-11-09T14:30:30.012Z,99409.67
2023-11-09T14:33:04.399Z,99407.09
2023-11-09T14:35:43.021Z,99411.00
2023-11-09T14:38:14.759Z,99411.60
2023-11-09T14:40:49.111Z,99414.86
2023-11-09T14:43:20.962Z,99422.30
2023-11-09T14:46:01.658Z,99423.36
2023-11-09T14:48:32.092Z,99428.06
2023-11-09T14:51:05.106Z,99434.11
2023-11-09T14:53:39.530Z,99438.08
2023-11-09T14:56:11.816Z,99439.56
2023-11-09T14:58:44.521Z,99438.60
2023-11-09T15:01:15.943Z,99440.30
2023-11-09T15:03:51.540Z,99442.46
2023-11-09T15:06:29.260Z,99443.84
2023-11-09T15:09:10.641Z,99434.22
2023-11-09T15:11:41.851Z,99442.27
2023-11-09T15:14:12.231Z,99445.22
2023-11-09T15:16:45.961Z,99449.95
2023-11-09T15:19:19.092Z,99446.63
2023-11-09T15:21:49.698Z,99447.80
2023-11-09T15:24:20.264Z,99446.96
2023-11-09T15:26:59.879Z,99443.45
2023-11-09T15:29:31.374Z,99441.09
2023-11-09T15:32:02.530Z,99434.69
2023-11-09T15:34:47.778Z,99429.86
2023-11-09T15:37:20.847Z,99431.02
2023-11-09T15:40:12.815Z,99435.59
2023-11-09T15:42:41.892Z,99436.70
2023-11-09T15:45:13.859Z,99435.61
2023-11-09T15:47:45.325Z,99440.52
2023-11-09T15:50:20.914Z,99438.04
2023-11-09T15:52:54.302Z,99441.70
2023-11-09T15:55:25.386Z,99441.56
2023-11-09T15:57:57.472Z,99442.87
2023-11-09T16:00:28.635Z,99436.21
2023-11-09T16:02:59.327Z,99429.52
2023-11-09T16:05:29.850Z,99430.23
2023-11-09T16:08:06.053Z,99427.12
2023-11-09T16:10:37.636Z,99420.45
2023-11-09T16:13:12.919Z,99419.75
2023-11-09T16:15:55.525Z,99414.84
2023-11-09T16:18:28.113Z,99412.56
2023-11-09T16:21:00.786Z,99413.13
2023-11-09T16:23:32.561Z,99413.14
2023-11-09T16:26:04.530Z,99410.34
2023-11-09T16:28:36.937Z,99408.94
2023-11-09T16:31:08.930Z,99408.61
2023-11-09T16:33:39.690Z,99408.08
2023-11-09T16:36:14.825Z,99401.01
2023-11-09T16:38:45.613Z,99405.74
2023-11-09T16:41:16.739Z,99409.08
2023-11-09T16:43:50.025Z,99413.63
2023-11-09T16:46:24.727Z,99413.83
2023-11-09T16:48:55.494Z,99413.89
2023-11-09T16:51:31.552Z,99424.48
2023-11-09T16:54:02.271Z,99426.62
2023-11-09T16:56:32.847Z,99423.20
2023-11-09T16:59:03.673Z,99419.54
2023-11-09T17:01:37.291Z,99413.60
2023-11-09T17:04:08.041Z,99409.05
2023-11-09T17:06:41.438Z,99400.05
2023-11-09T17:09:16.987Z,99402.69
2023-11-09T17:11:47.522Z,99396.79
2023-11-09T17:14:18.124Z,99395.51
2023-11-09T17:16:49.139Z,99396.50
2023-11-09T17:19:28.590Z,99401.51
2023-11-09T17:22:01.313Z,99404.05
2023-11-09T17:24:34.877Z,99399.80
2023-11-09T17:27:18.129Z,99390.64
2023-11-09T17:29:52.772Z,99394.39
2023-11-09T17:32:26.368Z,99393.48
2023-11-09T17:34:57.001Z,99389.60
2023-11-09T17:37:27.598Z,99389.75
2023-11-09T17:40:00.972Z,99396.42
2023-11-09T17:42:32.869Z,99397.30
2023-11-09T17:45:03.713Z,99390.30
2023-11-09T17:47:34.452Z,99386.83
2023-11-09T17:50:05.802Z,99387.06
2023-11-09T17:52:38.124Z,99383.01
2023-11-09T17:55:22.750Z,99383.85
2023-11-09T17:57:55.390Z,99384.12
2023-11-09T18:00:26.231Z,99380.73
2023-11-09T18:02:59.234Z,99380.22
2023-11-09T18:05:37.351Z,99374.94
2023-11-09T18:08:10.741Z,99371.66
2023-11-09T18:10:42.874Z,99370.20
2023-11-09T18:13:13.649Z,99366.02
2023-11-09T18:16:06.034Z,99364.04
2023-11-09T18:18:47.534Z,99364.57
2023-11-09T18:21:18.127Z,99359.80
2023-11-09T18:23:52.882Z,99370.33
2023-11-09T18:26:23.578Z,99369.77
2023-11-09T18:28:54.810Z,99366.59
2023-11-09T18:31:24.552Z,99365.52
2023-11-09T18:33:56.142Z,99362.66
2023-11-09T18:36:26.837Z,99359.59
2023-11-09T18:38:57.364Z,99359.24
2023-11-09T18:41:29.524Z,99357.14
2023-11-09T18:44:01.060Z,99355.77
2023-11-09T18:46:31.679Z,99360.15
2023-11-09T18:51:56.147Z,99359.08
2023-11-09T18:54:34.577Z,99362.00
2023-11-09T18:57:05.598Z,99360.58
2023-11-09T18:59:36.044Z,99358.64
2023-11-09T19:02:10.037Z,99351.90
2023-11-09T19:04:44.232Z,99343.59
2023-11-09T19:07:14.762Z,99346.58
2023-11-09T19:09:45.453Z,99347.30
2023-11-09T19:12:16.361Z,99348.02
2023-11-09T19:14:49.080Z,99342.52
2023-11-09T19:17:19.906Z,99336.69
2023-11-09T19:19:50.508Z,99338.42
2023-11-09T19:24:54.498Z,99339.05
2023-11-09T19:27:25.240Z,99335.30
2023-11-09T19:29:55.564Z,99321.91
2023-11-09T19:32:26.182Z,99319.35
2023-11-09T19:34:57.735Z,99319.02
2023-11-09T19:37:30.945Z,99310.64
2023-11-09T19:40:01.670Z,99308.10
2023-11-09T19:42:32.662Z,99305.39
2023-11-09T19:45:03.338Z,99296.98
2023-11-09T19:47:34.194Z,99289.84
2023-11-09T19:50:07.570Z,99287.86
2023-11-09T19:52:38.028Z,99287.17
2023-11-09T19:55:11.183Z,99276.64
2023-11-09T19:57:41.819Z,99274.16
2023-11-09T20:00:14.270Z,99273.98
2023-11-09T20:02:46.235Z,99268.73
2023-11-09T20:05:16.735Z,99270.25
2023-11-09T20:07:47.384Z,99273.52
2023-11-09T20:10:18.341Z,99266.48
2023-11-09T20:12:51.786Z,99264.09
2023-11-09T20:15:28.140Z,99255.52
2023-11-09T20:18:19.218Z,99243.98
2023-11-09T20:20:49.847Z,99239.46
2023-11-09T20:23:23.476Z,99244.30
2023-11-09T20:25:54.260Z,99242.66
2023-11-09T20:28:27.516Z,99240.45
2023-11-09T20:30:59.022Z,99246.40
2023-11-09T20:33:29.976Z,99247.17
2023-11-09T20:36:00.627Z,99240.18
2023-11-09T20:38:31.048Z,99238.95
2023-11-09T20:41:03.454Z,99235.04
2023-11-09T20:43:34.780Z,99239.70
2023-11-09T20:46:10.398Z,99242.52
2023-11-09T20:48:44.170Z,99237.48
2023-11-09T20:51:14.892Z,99240.14
2023-11-09T20:53:49.119Z,99238.17
2023-11-09T20:56:20.601Z,99241.41
2023-11-09T20:58:49.775Z,99234.34
2023-11-09T21:01:20.852Z,99234.30
2023-11-09T21:03:52.208Z,99238.57
2023-11-09T21:06:21.574Z,99230.63
2023-11-09T21:08:52.101Z,99234.54
2023-11-09T21:11:22.656Z,99222.17
2023-11-09T21:13:53.814Z,99221.56
2023-11-09T21:16:46.266Z,99216.50
2023-11-09T21:19:17.217Z,99211.95
2023-11-09T21:21:47.792Z,99211.65
2023-11-09T21:24:18.169Z,99214.66
2023-11-09T21:26:48.772Z,99212.25
2023-11-09T21:29:24.635Z,99215.10
2023-11-09T21:31:55.260Z,99213.35
2023-11-09T21:34:25.846Z,99205.39
2023-11-09T21:36:56.958Z,99211.10
2023-11-09T21:39:27.919Z,99194.16
2023-11-09T21:41:58.281Z,99198.63
2023-11-09T21:44:30.696Z,99196.13
2023-11-09T21:47:01.769Z,99192.89
2023-11-09T21:49:33.118Z,99190.99
2023-11-09T21:52:08.650Z,99184.86
2023-11-09T21:54:39.073Z,99179.87
2023-11-09T21:57:09.809Z,99178.02
2023-11-09T21:59:40.390Z,99174.91
2023-11-09T22:02:10.861Z,99172.84
2023-11-09T22:04:41.483Z,99177.02
2023-11-09T22:07:13.368Z,99174.61
2023-11-09T22:09:43.927Z,99181.31
2023-11-09T22:12:15.305Z,99179.30
2023-11-09T22:14:57.828Z,99181.30
2023-11-09T22:17:29.095Z,99179.21
2023-11-09T22:19:59.718Z,99173.37
2023-11-09T22:22:34.872Z,99164.49
2023-11-09T22:25:07.698Z,99160.83
2023-11-09T22:27:38.359Z,99150.98
2023-11-09T22:30:10.756Z,99149.33
2023-11-09T22:32:41.522Z,99146.40
2023-11-09T22:35:12.143Z,99139.27
2023-11-09T22:37:42.591Z,99123.15
2023-11-09T22:40:14.569Z,99124.05
2023-11-09T22:42:46.286Z,99132.70
2023-11-09T22:45:19.682Z,99135.30
2023-11-09T22:47:52.858Z,99145.31
2023-11-09T22:50:25.167Z,99151.05
2023-11-09T22:52:59.834Z,99151.38
2023-11-09T22:55:30.568Z,99146.61
2023-11-09T22:58:01.102Z,99145.02
2023-11-09T23:00:51.321Z,99149.86
2023-11-09T23:03:24.294Z,99152.48
2023-11-09T23:05:56.141Z,99143.27
2023-11-09T23:08:26.754Z,99146.83
2023-11-09T23:10:57.221Z,99150.06
2023-11-09T23:13:29.441Z,99149.93
2023-11-09T23:16:02.550Z,99142.98
2023-11-09T23:18:33.142Z,99138.14
2023-11-09T23:21:04.520Z,99131.20
2023-11-09T23:23:38.324Z,99113.44
2023-11-09T23:26:29.177Z,99106.89
2023-11-09T23:28:59.667Z,99104.59
2023-11-09T23:31:30.162Z,99101.11
2023-11-09T23:34:02.330Z,99094.79
2023-11-09T23:36:33.392Z,99087.91
2023-11-09T23:39:05.346Z,99094.66
2023-11-09T23:41:35.777Z,99100.27
2023-11-09T23:44:07.221Z,99100.69
2023-11-09T23:46:38.617Z,99099.98
2023-11-09T23:49:07.572Z,99099.87
2023-11-09T23:51:39.457Z,99100.22
2023-11-09T23:54:12.722Z,99096.77
2023-11-09T23:56:43.314Z,99089.20
2023-11-09T23:59:14.670Z,99087.14
